Time;durP1;ratioP1;P1;durP2;ratioP2;P2;SDS_P1;SDS_P2;PMS_P1;PMS_P2;Temp;Humidity;BMP_temperature;BMP_pressure;BME280_temperature;BME280_humidity;BME280_pressure;Samples;Min_cycle;Max_cycle;Signal;HPM_P1;HPM_P2
2021/05/20 00:01:03;;;;;;;9.68;7.75;;;11.40;97.70;;;;;;4999233;28;20035;-84
2021/05/20 00:03:29;;;;;;;10.38;7.63;;;11.40;97.80;;;;;;5035305;28;20024;-84
2021/05/20 00:05:55;;;;;;;8.48;7.53;;;11.40;97.80;;;;;;5069915;23;20063;-84
2021/05/20 00:08:20;;;;;;;9.18;7.68;;;11.40;97.70;;;;;;5067701;28;20059;-84
2021/05/20 00:10:46;;;;;;;9.27;7.93;;;11.30;97.60;;;;;;5067012;28;20032;-82
2021/05/20 00:13:12;;;;;;;9.27;7.60;;;11.30;97.70;;;;;;5066997;28;20377;-84
2021/05/20 00:15:37;;;;;;;10.07;8.18;;;11.20;97.50;;;;;;5059892;28;20033;-84
2021/05/20 00:18:03;;;;;;;9.13;7.43;;;11.20;97.60;;;;;;5072923;28;20045;-84
2021/05/20 00:20:29;;;;;;;8.93;7.60;;;11.20;97.70;;;;;;5072895;28;20484;-84
2021/05/20 00:22:55;;;;;;;8.40;7.50;;;11.20;97.70;;;;;;5055040;28;20066;-84
2021/05/20 00:25:20;;;;;;;9.40;7.50;;;11.20;97.70;;;;;;5071553;28;20026;-84
2021/05/20 00:27:46;;;;;;;9.50;7.63;;;11.10;97.60;;;;;;5055636;28;20484;-84
2021/05/20 00:30:12;;;;;;;8.43;7.53;;;11.10;97.60;;;;;;5056069;28;20052;-84
2021/05/20 00:32:38;;;;;;;10.02;8.32;;;11.10;97.80;;;;;;5073434;28;20529;-84
2021/05/20 00:35:05;;;;;;;9.02;7.95;;;11.10;97.90;;;;;;5054571;28;20059;-84
2021/05/20 00:37:30;;;;;;;9.55;8.10;;;11.10;98.00;;;;;;5054564;28;20033;-84
2021/05/20 00:39:56;;;;;;;9.73;8.70;;;11.00;98.10;;;;;;5058569;28;20021;-84
2021/05/20 00:42:22;;;;;;;10.50;9.07;;;11.00;98.00;;;;;;5053193;28;20031;-84
2021/05/20 00:44:59;;;;;;;11.02;8.75;;;11.00;98.10;;;;;;5040387;28;20044;-84
2021/05/20 00:47:27;;;;;;;13.38;9.00;;;11.00;97.90;;;;;;5038269;28;20028;-84
2021/05/20 00:49:53;;;;;;;9.77;8.25;;;10.90;98.00;;;;;;5043793;28;20028;-84
2021/05/20 00:52:19;;;;;;;10.02;8.73;;;10.90;98.00;;;;;;5048522;28;20031;-84
2021/05/20 00:54:49;;;;;;;12.43;8.88;;;10.90;98.00;;;;;;5042493;28;20112;-84
2021/05/20 00:57:15;;;;;;;11.68;9.15;;;10.90;97.90;;;;;;5047385;28;20071;-84
2021/05/20 00:59:41;;;;;;;10.50;8.98;;;10.90;98.00;;;;;;5047115;28;20021;-84
2021/05/20 01:02:09;;;;;;;9.40;8.20;;;10.80;98.00;;;;;;5047642;28;20016;-84
2021/05/20 01:04:34;;;;;;;9.73;8.73;;;10.80;98.00;;;;;;5056567;28;20054;-84
2021/05/20 01:07:00;;;;;;;10.05;8.70;;;10.80;98.10;;;;;;5042869;28;20387;-84
2021/05/20 01:09:26;;;;;;;13.00;9.00;;;10.80;98.00;;;;;;5051860;28;20112;-84
2021/05/20 01:11:52;;;;;;;11.52;8.80;;;10.80;98.00;;;;;;5057986;28;20025;-84
2021/05/20 01:14:17;;;;;;;10.15;8.57;;;10.70;98.30;;;;;;5049700;28;20432;-84
2021/05/20 01:16:46;;;;;;;9.90;8.30;;;10.70;98.10;;;;;;5059909;28;20525;-83
2021/05/20 01:19:13;;;;;;;10.82;9.15;;;10.70;98.00;;;;;;5060040;28;20024;-84
2021/05/20 01:21:40;;;;;;;11.68;9.20;;;10.70;98.10;;;;;;5053802;28;20405;-84
2021/05/20 01:24:07;;;;;;;9.88;8.55;;;10.70;98.10;;;;;;5062036;28;20033;-84
2021/05/20 01:26:36;;;;;;;11.13;9.85;;;10.60;98.00;;;;;;5047970;28;20032;-84
2021/05/20 01:29:11;;;;;;;10.63;9.18;;;10.60;98.00;;;;;;5057606;28;20478;-84
2021/05/20 01:31:37;;;;;;;10.55;9.10;;;10.60;98.00;;;;;;5052696;28;20029;-84
2021/05/20 01:34:03;;;;;;;12.27;9.38;;;10.60;98.10;;;;;;5070605;28;20013;-84
2021/05/20 01:36:30;;;;;;;11.90;9.63;;;10.60;98.20;;;;;;5053876;28;20036;-84
2021/05/20 01:39:00;;;;;;;12.35;9.68;;;10.50;98.30;;;;;;5053762;28;20115;-84
2021/05/20 01:41:26;;;;;;;11.17;9.43;;;10.50;98.20;;;;;;5070465;28;20033;-83
2021/05/20 01:43:52;;;;;;;12.07;10.02;;;10.50;98.20;;;;;;5073110;28;20678;-84
2021/05/20 01:46:17;;;;;;;13.68;10.25;;;10.50;98.20;;;;;;5053741;28;20085;-84
2021/05/20 01:48:45;;;;;;;16.95;10.88;;;10.50;98.10;;;;;;5052585;28;20090;-84
2021/05/20 01:51:18;;;;;;;12.70;10.85;;;10.40;98.10;;;;;;5040854;28;20032;-84
2021/05/20 01:53:51;;;;;;;13.10;10.63;;;10.40;98.10;;;;;;5056052;28;20090;-84
2021/05/20 01:56:18;;;;;;;12.95;10.98;;;10.40;98.20;;;;;;5041253;28;20035;-84
2021/05/20 01:58:44;;;;;;;15.80;11.23;;;10.40;98.20;;;;;;5040446;28;20029;-84
2021/05/20 02:01:10;;;;;;;15.10;11.38;;;10.40;98.30;;;;;;5070702;28;20033;-83
2021/05/20 02:03:37;;;;;;;14.98;12.93;;;10.30;98.60;;;;;;5065727;28;20021;-84
2021/05/20 02:06:04;;;;;;;14.30;12.32;;;10.30;98.40;;;;;;5043079;28;20045;-84
2021/05/20 02:08:31;;;;;;;15.85;13.30;;;10.30;98.40;;;;;;5047643;28;20027;-84
2021/05/20 02:10:57;;;;;;;17.45;14.40;;;10.30;98.40;;;;;;5055945;28;20021;-84
2021/05/20 02:13:23;;;;;;;17.88;14.05;;;10.30;98.40;;;;;;5049198;28;20386;-84
2021/05/20 02:15:50;;;;;;;19.13;14.00;;;10.30;98.20;;;;;;5041979;28;20029;-84
2021/05/20 02:18:15;;;;;;;18.40;14.73;;;10.30;98.40;;;;;;5056966;28;20118;-84
2021/05/20 02:20:41;;;;;;;18.83;14.95;;;10.20;98.40;;;;;;5074064;28;20048;-84
2021/05/20 02:23:07;;;;;;;20.20;15.77;;;10.20;98.50;;;;;;5056949;28;20032;-83
2021/05/20 02:25:33;;;;;;;19.70;16.77;;;10.20;98.70;;;;;;5073736;28;20107;-83
2021/05/20 02:27:59;;;;;;;20.77;15.93;;;10.20;98.70;;;;;;5074878;28;20115;-84
2021/05/20 02:30:25;;;;;;;18.92;14.88;;;10.20;98.70;;;;;;5056820;28;20028;-84
2021/05/20 02:32:51;;;;;;;21.02;15.20;;;10.10;98.60;;;;;;5074654;28;20016;-84
2021/05/20 02:35:17;;;;;;;33.90;14.90;;;10.10;98.70;;;;;;5056836;28;20363;-84
2021/05/20 02:37:44;;;;;;;21.50;15.40;;;10.10;98.80;;;;;;5056738;28;20017;-83
2021/05/20 02:40:11;;;;;;;26.05;15.45;;;10.10;98.90;;;;;;5056880;28;20112;-83
2021/05/20 02:42:38;;;;;;;26.23;15.50;;;10.00;99.00;;;;;;5040009;28;20037;-83
2021/05/20 02:45:06;;;;;;;18.00;15.45;;;10.00;99.10;;;;;;5058997;28;20039;-83
2021/05/20 02:47:32;;;;;;;23.30;16.55;;;10.00;99.10;;;;;;5041242;28;20124;-84
2021/05/20 02:49:58;;;;;;;21.65;18.40;;;10.00;99.20;;;;;;5033493;28;20109;-83
2021/05/20 02:52:23;;;;;;;18.88;16.52;;;10.00;99.30;;;;;;5052285;28;20051;-84
2021/05/20 02:54:49;;;;;;;22.33;18.48;;;9.90;99.40;;;;;;5042308;28;20028;-84
2021/05/20 02:57:15;;;;;;;24.08;19.02;;;10.00;99.60;;;;;;5073087;28;20486;-84
2021/05/20 02:59:40;;;;;;;23.75;18.85;;;10.00;99.70;;;;;;5056372;28;20028;-83
2021/05/20 03:02:09;;;;;;;24.05;19.45;;;10.00;99.70;;;;;;5056245;28;20081;-84
2021/05/20 03:04:36;;;;;;;28.13;19.40;;;10.00;99.90;;;;;;5073978;28;20104;-84
2021/05/20 03:07:03;;;;;;;26.30;20.52;;;10.10;99.80;;;;;;5052269;28;20082;-83
2021/05/20 03:09:29;;;;;;;26.42;20.75;;;10.10;99.80;;;;;;5046512;28;20027;-84
2021/05/20 03:11:58;;;;;;;30.02;21.02;;;10.10;99.80;;;;;;5058480;28;20037;-83
2021/05/20 03:14:24;;;;;;;26.52;19.17;;;10.10;99.80;;;;;;5056127;28;20027;-84
2021/05/20 03:16:50;;;;;;;26.90;19.83;;;10.10;99.80;;;;;;5041811;28;20095;-84
2021/05/20 03:19:16;;;;;;;27.60;20.75;;;10.10;99.80;;;;;;5072855;28;20083;-84
2021/05/20 03:21:42;;;;;;;28.05;21.67;;;10.20;99.90;;;;;;5073997;28;20031;-83
2021/05/20 03:24:08;;;;;;;29.55;20.48;;;10.20;99.90;;;;;;5041543;28;20107;-84
2021/05/20 03:26:34;;;;;;;29.65;21.23;;;10.20;99.90;;;;;;5060827;28;20051;-84
2021/05/20 03:29:00;;;;;;;33.38;22.73;;;10.20;99.90;;;;;;5068362;28;20482;-83
2021/05/20 03:31:26;;;;;;;28.35;21.35;;;10.20;99.90;;;;;;5051644;28;20021;-84
2021/05/20 03:33:52;;;;;;;31.35;21.73;;;10.20;99.90;;;;;;5067230;28;20033;-84
2021/05/20 03:36:18;;;;;;;28.77;20.88;;;10.20;99.90;;;;;;5067171;28;20025;-84
2021/05/20 03:38:43;;;;;;;34.85;21.88;;;10.20;99.90;;;;;;5066796;28;20052;-84
2021/05/20 03:41:09;;;;;;;29.45;21.95;;;10.20;99.90;;;;;;5068350;28;20029;-83
2021/05/20 03:43:36;;;;;;;30.42;21.52;;;10.20;99.90;;;;;;5035435;28;20076;-83
2021/05/20 03:46:02;;;;;;;29.70;21.33;;;10.20;99.90;;;;;;5052315;28;20025;-84
2021/05/20 03:48:29;;;;;;;34.30;22.70;;;10.20;99.90;;;;;;5068896;28;20056;-84
2021/05/20 03:50:56;;;;;;;32.80;24.00;;;10.20;99.90;;;;;;5051682;28;20112;-83
2021/05/20 03:53:21;;;;;;;31.08;22.35;;;10.20;99.90;;;;;;5068748;28;20115;-84
2021/05/20 03:55:48;;;;;;;31.67;21.42;;;10.20;99.90;;;;;;5068583;28;20120;-84
2021/05/20 03:58:14;;;;;;;29.85;21.20;;;10.20;99.90;;;;;;5068733;28;20025;-84
2021/05/20 04:00:40;;;;;;;29.50;20.38;;;10.10;99.90;;;;;;5034586;28;20512;-84
2021/05/20 04:03:06;;;;;;;31.83;21.40;;;10.10;99.90;;;;;;5054915;28;20036;-83
2021/05/20 04:05:32;;;;;;;30.48;21.05;;;10.10;99.90;;;;;;5043917;28;20053;-83
2021/05/20 04:07:58;;;;;;;28.30;19.88;;;10.20;99.90;;;;;;5047003;28;20478;-83
2021/05/20 04:10:24;;;;;;;28.60;19.83;;;10.20;99.90;;;;;;5048352;28;20036;-83
2021/05/20 04:12:50;;;;;;;29.45;21.10;;;10.10;99.90;;;;;;5031686;28;20021;-83
2021/05/20 04:15:16;;;;;;;31.77;21.05;;;10.10;99.90;;;;;;5048294;28;20379;-83
2021/05/20 04:17:43;;;;;;;29.52;20.73;;;10.10;99.90;;;;;;5032065;28;20080;-83
2021/05/20 04:20:10;;;;;;;26.75;19.65;;;10.10;99.90;;;;;;5028404;28;20491;-83
2021/05/20 04:22:36;;;;;;;31.23;20.45;;;10.10;99.90;;;;;;5030786;28;20038;-84
2021/05/20 04:25:03;;;;;;;30.77;19.95;;;10.10;99.90;;;;;;5031423;28;20376;-84
2021/05/20 04:27:28;;;;;;;33.45;22.35;;;10.10;99.90;;;;;;5031505;28;20021;-84
2021/05/20 04:29:56;;;;;;;33.58;21.13;;;10.20;99.90;;;;;;5045281;28;20035;-84
2021/05/20 04:32:21;;;;;;;28.27;19.02;;;10.20;99.90;;;;;;5031286;28;20029;-84
2021/05/20 04:34:47;;;;;;;27.77;19.10;;;10.20;99.90;;;;;;5047922;28;20481;-84
2021/05/20 04:37:12;;;;;;;27.40;17.95;;;10.10;99.90;;;;;;5031401;28;20475;-84
2021/05/20 04:39:38;;;;;;;27.20;18.38;;;10.20;99.90;;;;;;5031428;28;20036;-84
2021/05/20 04:42:04;;;;;;;29.02;18.55;;;10.20;99.90;;;;;;5045171;28;20030;-84
2021/05/20 04:44:30;;;;;;;29.10;19.30;;;10.20;99.90;;;;;;5031253;28;20026;-84
2021/05/20 04:46:55;;;;;;;29.50;19.40;;;10.20;99.90;;;;;;5059138;28;20033;-84
2021/05/20 04:49:21;;;;;;;26.83;18.85;;;10.20;99.90;;;;;;5005872;28;20040;-83
2021/05/20 04:51:47;;;;;;;27.95;19.17;;;10.20;99.90;;;;;;5031131;28;20022;-84
2021/05/20 04:54:12;;;;;;;27.55;18.85;;;10.20;99.90;;;;;;5015119;28;20052;-86
2021/05/20 04:56:38;;;;;;;27.70;19.83;;;10.20;99.90;;;;;;5031208;28;20029;-84
2021/05/20 04:59:04;;;;;;;30.85;21.05;;;10.20;99.90;;;;;;5031263;28;20026;-86
2021/05/20 05:01:30;;;;;;;28.88;19.60;;;10.20;99.90;;;;;;5030790;28;20037;-84
2021/05/20 05:03:57;;;;;;;30.20;20.00;;;10.20;99.90;;;;;;5032870;28;20112;-84
2021/05/20 05:06:23;;;;;;;28.85;20.52;;;10.20;99.90;;;;;;5047910;28;20403;-83
2021/05/20 05:08:48;;;;;;;29.42;20.13;;;10.20;99.90;;;;;;5067868;28;20035;-84
2021/05/20 05:11:14;;;;;;;29.05;19.05;;;10.10;99.90;;;;;;5038352;28;20506;-83
2021/05/20 05:13:40;;;;;;;29.65;19.85;;;10.10;99.90;;;;;;5049818;28;20017;-83
2021/05/20 05:16:05;;;;;;;28.67;19.73;;;10.20;99.90;;;;;;5051883;28;20027;-84
2021/05/20 05:18:31;;;;;;;29.15;20.60;;;10.20;99.90;;;;;;5048921;28;20033;-84
2021/05/20 05:20:57;;;;;;;30.17;20.55;;;10.10;99.90;;;;;;5039086;28;20025;-83
2021/05/20 05:23:23;;;;;;;28.88;19.40;;;10.10;99.90;;;;;;5055433;28;20029;-82
2021/05/20 05:25:49;;;;;;;29.80;20.15;;;10.10;99.90;;;;;;5051954;28;20091;-84
2021/05/20 05:28:15;;;;;;;32.95;22.02;;;10.10;99.90;;;;;;5067339;28;20037;-84
2021/05/20 05:30:41;;;;;;;32.92;21.98;;;10.00;99.90;;;;;;5046535;28;20033;-84
2021/05/20 05:33:06;;;;;;;32.03;21.38;;;10.00;99.90;;;;;;5021424;28;20121;-84
2021/05/20 05:35:32;;;;;;;30.90;21.33;;;10.00;99.90;;;;;;5034568;28;20030;-83
2021/05/20 05:37:58;;;;;;;29.25;19.45;;;9.90;99.90;;;;;;5056196;28;20095;-83
2021/05/20 05:40:24;;;;;;;27.73;19.02;;;9.90;99.90;;;;;;5071336;28;20091;-83
2021/05/20 05:42:49;;;;;;;29.55;19.52;;;9.90;99.90;;;;;;5054671;28;20033;-84
2021/05/20 05:45:15;;;;;;;27.48;18.27;;;9.90;99.90;;;;;;5038504;28;20034;-84
2021/05/20 05:47:41;;;;;;;26.98;18.45;;;9.90;99.90;;;;;;5016379;28;20485;-83
2021/05/20 05:50:12;;;;;;;29.95;19.20;;;9.90;99.90;;;;;;5059117;28;20021;-84
2021/05/20 05:52:38;;;;;;;;;;;10.00;99.90;;;;;;5029841;28;20092;-84
2021/05/20 05:55:06;;;;;;;29.13;17.67;;;10.00;99.90;;;;;;5055708;28;19908;-84
2021/05/20 05:57:32;;;;;;;31.55;20.10;;;10.00;99.90;;;;;;5053964;28;20363;-83
2021/05/20 05:59:58;;;;;;;33.85;20.98;;;10.10;99.90;;;;;;5037544;28;20013;-83
2021/05/20 06:02:24;;;;;;;36.33;21.30;;;10.10;99.90;;;;;;5050574;28;20037;-83
2021/05/20 06:04:51;;;;;;;39.33;22.20;;;10.10;99.90;;;;;;5060600;22;20048;-85
2021/05/20 06:07:17;;;;;;;40.08;22.58;;;10.20;99.90;;;;;;5057316;28;20024;-84
2021/05/20 06:09:44;;;;;;;41.30;23.80;;;10.10;99.90;;;;;;5073937;28;20067;-84
2021/05/20 06:12:10;;;;;;;41.40;22.33;;;10.20;99.90;;;;;;5073803;28;20024;-85
2021/05/20 06:14:39;;;;;;;43.88;23.08;;;10.10;99.90;;;;;;5067980;28;20024;-85
2021/05/20 06:17:06;;;;;;;45.05;22.52;;;10.20;99.90;;;;;;5066312;28;20017;-84
2021/05/20 06:19:32;;;;;;;43.47;21.63;;;10.20;99.90;;;;;;5045136;28;20031;-84
2021/05/20 06:21:58;;;;;;;39.72;20.45;;;10.20;99.90;;;;;;5049526;28;20025;-85
2021/05/20 06:24:23;;;;;;;49.78;23.92;;;10.20;99.90;;;;;;5047860;28;20029;-84
2021/05/20 06:26:49;;;;;;;44.03;21.40;;;10.30;99.90;;;;;;5050875;28;20111;-85
2021/05/20 06:29:15;;;;;;;43.88;21.23;;;10.30;99.90;;;;;;5047746;28;20546;-84
2021/05/20 06:31:40;;;;;;;51.15;24.77;;;10.30;99.90;;;;;;5044933;28;20477;-85
2021/05/20 06:34:06;;;;;;;45.13;21.35;;;10.30;99.90;;;;;;5052354;28;20127;-85
2021/05/20 06:36:32;;;;;;;50.13;23.35;;;10.40;99.90;;;;;;5073793;28;20031;-85
2021/05/20 06:38:58;;;;;;;51.55;25.08;;;10.40;99.90;;;;;;5056396;28;20055;-85
2021/05/20 06:41:24;;;;;;;51.80;24.92;;;10.50;99.90;;;;;;5052710;28;20042;-85
2021/05/20 06:43:50;;;;;;;52.30;25.27;;;10.50;99.90;;;;;;5051646;28;20025;-85
2021/05/20 06:46:15;;;;;;;49.10;24.52;;;10.50;99.90;;;;;;5035805;28;20029;-85
2021/05/20 06:48:41;;;;;;;49.80;24.75;;;10.50;99.90;;;;;;5038851;28;20251;-86
2021/05/20 06:51:07;;;;;;;50.00;24.35;;;10.60;99.90;;;;;;5067975;28;20126;-85
2021/05/20 06:53:35;;;;;;;53.30;25.70;;;10.60;99.90;;;;;;5054559;28;20036;-85
2021/05/20 06:56:03;;;;;;;52.78;25.77;;;10.70;99.90;;;;;;5053160;28;20031;-85
2021/05/20 07:01:13;;;;;;;52.58;25.30;;;10.70;99.90;;;;;;5070883;28;20546;-85
2021/05/20 07:03:39;;;;;;;59.95;27.02;;;10.80;99.90;;;;;;5059684;28;20059;-87
2021/05/20 07:06:05;;;;;;;56.25;27.48;;;10.80;99.90;;;;;;5063272;28;20131;-87
2021/05/20 07:08:31;;;;;;;67.57;31.73;;;10.90;99.90;;;;;;5060450;28;20039;-85
2021/05/20 07:10:57;;;;;;;73.40;34.60;;;10.90;99.90;;;;;;5038167;28;20025;-85
2021/05/20 07:13:23;;;;;;;82.63;39.70;;;10.90;99.90;;;;;;5030448;28;20108;-88
2021/05/20 07:15:50;;;;;;;80.38;37.97;;;10.90;99.90;;;;;;5067724;28;20028;-87
2021/05/20 07:18:17;;;;;;;73.97;37.17;;;10.90;99.90;;;;;;5075101;28;20428;-88
2021/05/20 07:20:43;;;;;;;69.68;34.97;;;10.90;99.90;;;;;;5060491;28;20030;-85
2021/05/20 07:23:10;;;;;;;67.22;36.40;;;11.00;99.90;;;;;;5063364;28;20451;-85
2021/05/20 07:25:36;;;;;;;69.72;37.30;;;11.00;99.90;;;;;;5060418;28;20485;-85
2021/05/20 07:28:02;;;;;;;60.10;32.85;;;11.00;99.90;;;;;;5077478;28;20067;-86
2021/05/20 07:30:27;;;;;;;60.85;35.13;;;11.00;99.90;;;;;;5050024;28;20447;-85
2021/05/20 07:32:53;;;;;;;60.92;33.25;;;11.10;99.90;;;;;;5056952;28;20024;-86
2021/05/20 07:35:19;;;;;;;70.78;38.63;;;11.10;99.90;;;;;;5059845;28;20401;-86
2021/05/20 07:37:44;;;;;;;70.55;38.42;;;11.10;99.90;;;;;;5060224;28;20023;-87
2021/05/20 07:40:11;;;;;;;79.30;42.08;;;11.10;99.90;;;;;;5060530;28;20468;-84
2021/05/20 07:42:37;;;;;;;62.13;37.15;;;11.10;99.90;;;;;;5059558;28;20052;-87
2021/05/20 07:45:04;;;;;;;70.03;40.80;;;11.10;99.90;;;;;;5044948;28;20040;-86
2021/05/20 07:47:30;;;;;;;69.72;39.70;;;11.20;99.90;;;;;;5056346;28;20028;-86
2021/05/20 07:49:55;;;;;;;70.25;41.22;;;11.20;99.90;;;;;;5036131;28;20385;-86
2021/05/20 07:52:21;;;;;;;61.70;36.60;;;11.20;99.90;;;;;;5060147;28;20097;-86
2021/05/20 07:54:47;;;;;;;79.20;42.47;;;11.30;99.90;;;;;;5060484;28;20094;-86
2021/05/20 07:57:13;;;;;;;80.80;43.55;;;11.30;99.90;;;;;;5057024;28;20485;-87
2021/05/20 07:59:39;;;;;;;74.63;42.53;;;11.30;99.90;;;;;;5010650;28;20056;-86
2021/05/20 08:04:53;;;;;;;59.38;34.50;;;11.30;99.90;;;;;;5029405;28;20128;-86
2021/05/20 08:10:05;;;;;;;56.47;31.95;;;11.30;99.90;;;;;;5086299;28;20409;-86
2021/05/20 08:12:30;;;;;;;52.45;29.10;;;11.40;99.90;;;;;;5055285;28;20036;-87
2021/05/20 08:14:56;;;;;;;53.40;29.60;;;11.40;99.90;;;;;;5030634;28;20047;-87
2021/05/20 08:17:22;;;;;;;62.55;33.83;;;11.50;99.90;;;;;;5048946;28;20130;-87
2021/05/20 08:19:47;;;;;;;65.18;36.45;;;11.50;99.90;;;;;;5020385;28;20013;-86
2021/05/20 08:22:13;;;;;;;67.75;38.28;;;11.60;99.90;;;;;;5054375;28;20066;-86
2021/05/20 08:24:39;;;;;;;66.70;37.45;;;11.60;99.90;;;;;;5051900;28;20024;-86
2021/05/20 08:27:05;;;;;;;65.00;35.08;;;11.60;99.90;;;;;;5049537;28;20093;-86
2021/05/20 08:29:31;;;;;;;63.08;33.03;;;11.50;99.90;;;;;;5077871;28;20123;-86
2021/05/20 08:31:57;;;;;;;57.92;33.70;;;11.60;99.90;;;;;;5051476;28;20019;-87
2021/05/20 08:34:23;;;;;;;53.50;31.83;;;11.60;99.90;;;;;;5065041;28;20028;-88
2021/05/20 08:36:49;;;;;;;55.50;31.55;;;11.50;99.90;;;;;;5048344;28;20032;-88
2021/05/20 08:39:15;;;;;;;45.58;27.33;;;11.50;99.90;;;;;;5061906;28;20028;-87
2021/05/20 08:41:41;;;;;;;46.42;28.10;;;11.60;99.90;;;;;;5043918;28;20504;-87
2021/05/20 08:44:12;;;;;;;43.20;27.17;;;11.60;99.90;;;;;;5022610;28;20036;-86
2021/05/20 08:46:38;;;;;;;42.78;25.38;;;11.60;99.90;;;;;;5056692;28;20017;-87
2021/05/20 08:49:14;;;;;;;41.08;26.67;;;11.60;99.90;;;;;;5075457;28;20032;-87
2021/05/20 08:51:40;;;;;;;41.78;26.75;;;11.70;99.90;;;;;;5071624;28;20039;-86
2021/05/20 08:54:06;;;;;;;40.70;27.17;;;11.70;99.90;;;;;;5053661;28;20037;-87
2021/05/20 08:56:32;;;;;;;45.22;30.67;;;11.70;99.90;;;;;;5043328;28;20039;-86
2021/05/20 08:59:01;;;;;;;40.13;28.00;;;11.80;99.50;;;;;;5076208;28;20013;-86
2021/05/20 09:01:36;;;;;;;43.50;30.20;;;11.80;99.30;;;;;;5062584;28;20063;-84
2021/05/20 09:04:03;;;;;;;42.33;28.13;;;11.80;99.60;;;;;;5058525;28;21544;-85
2021/05/20 09:06:53;;;;;;;36.97;26.33;;;11.80;99.10;;;;;;5059100;28;20064;-85
2021/05/20 09:09:29;;;;;;;32.83;24.50;;;11.80;98.90;;;;;;5059511;28;20032;-85
2021/05/20 09:11:58;;;;;;;33.67;24.00;;;11.80;98.70;;;;;;5060627;28;20028;-85
2021/05/20 09:14:29;;;;;;;32.13;24.23;;;11.90;98.40;;;;;;5057289;28;20390;-85
2021/05/20 09:17:07;;;;;;;34.58;23.65;;;11.90;98.40;;;;;;5074605;28;20044;-85
2021/05/20 09:19:34;;;;;;;34.40;23.55;;;11.90;98.40;;;;;;5068553;28;20449;-84
2021/05/20 09:22:08;;;;;;;36.08;25.23;;;12.00;98.50;;;;;;5075709;28;20043;-85
2021/05/20 09:24:44;;;;;;;39.15;28.52;;;12.00;98.50;;;;;;5061233;28;20055;-85
2021/05/20 09:27:34;;;;;;;35.80;26.05;;;12.00;98.50;;;;;;5042058;28;20040;-85
2021/05/20 09:30:08;;;;;;;37.23;26.67;;;12.10;98.40;;;;;;5072722;28;20031;-85
2021/05/20 09:32:35;;;;;;;33.38;23.92;;;12.10;98.50;;;;;;5055996;28;20028;-84
2021/05/20 09:35:02;;;;;;;32.20;23.15;;;12.10;98.40;;;;;;5054400;28;20036;-84
2021/05/20 09:37:28;;;;;;;29.27;22.42;;;12.10;98.40;;;;;;5053926;28;20037;-85
2021/05/20 09:40:01;;;;;;;24.63;18.55;;;12.20;98.60;;;;;;5054104;28;20024;-85
2021/05/20 09:42:31;;;;;;;26.58;19.77;;;12.30;98.20;;;;;;5050323;28;20028;-86
2021/05/20 09:45:11;;;;;;;26.48;18.70;;;12.30;98.10;;;;;;5040413;28;20140;-85
2021/05/20 09:47:37;;;;;;;20.08;16.88;;;12.40;98.00;;;;;;5041955;28;20098;-86
2021/05/20 09:50:08;;;;;;;18.45;14.93;;;12.40;98.20;;;;;;5071912;28;20095;-85
2021/05/20 09:52:34;;;;;;;22.63;17.55;;;12.50;98.40;;;;;;5040652;28;20546;-85
2021/05/20 09:55:00;;;;;;;22.92;18.30;;;12.50;97.90;;;;;;5054035;28;20020;-85
2021/05/20 09:57:31;;;;;;;25.38;20.30;;;12.60;97.90;;;;;;5040479;28;20029;-85
2021/05/20 10:00:08;;;;;;;;;;;12.60;97.50;;;;;;5054299;28;20043;-85
2021/05/20 10:02:34;;;;;;;22.80;18.58;;;12.70;97.60;;;;;;5053394;28;19904;-85
2021/05/20 10:05:20;;;;;;;23.52;18.92;;;12.70;97.60;;;;;;5052075;28;20045;-85
2021/05/20 10:07:46;;;;;;;20.42;16.77;;;12.70;97.60;;;;;;5084961;28;20429;-85
2021/05/20 10:10:13;;;;;;;24.10;18.77;;;12.80;97.90;;;;;;5053632;28;20051;-85
2021/05/20 10:12:40;;;;;;;21.90;17.88;;;12.80;97.70;;;;;;5057657;28;20020;-85
2021/05/20 10:15:11;;;;;;;22.42;17.63;;;12.90;97.60;;;;;;5063275;28;20123;-85
2021/05/20 10:17:38;;;;;;;;;;;13.00;97.10;;;;;;5067824;28;20138;-85
2021/05/20 10:20:05;;;;;;;21.30;17.77;;;13.00;96.80;;;;;;5072110;28;19904;-85
2021/05/20 10:22:33;;;;;;;23.60;17.13;;;13.10;96.80;;;;;;5039156;28;20052;-85
2021/05/20 10:24:59;;;;;;;19.90;16.40;;;13.10;96.90;;;;;;5057148;28;20020;-85
2021/05/20 10:27:25;;;;;;;20.23;16.88;;;13.30;96.20;;;;;;5062310;28;20055;-85
2021/05/20 10:29:52;;;;;;;19.77;16.05;;;13.30;96.10;;;;;;5063751;28;20021;-84
2021/05/20 10:32:18;;;;;;;19.30;15.88;;;13.40;95.80;;;;;;5064980;28;20436;-85
2021/05/20 10:35:08;;;;;;;19.70;15.23;;;13.50;95.30;;;;;;5056776;28;20025;-85
2021/05/20 10:37:38;;;;;;;19.92;16.85;;;13.50;95.20;;;;;;5071480;28;20023;-85
2021/05/20 10:40:09;;;;;;;19.92;16.67;;;13.50;95.40;;;;;;5072645;28;20116;-84
2021/05/20 10:42:41;;;;;;;20.63;16.55;;;13.60;95.00;;;;;;5093879;28;20479;-84
2021/05/20 10:45:22;;;;;;;22.02;17.15;;;13.70;94.90;;;;;;5075562;28;20023;-85
2021/05/20 10:48:08;;;;;;;21.33;18.55;;;13.80;95.60;;;;;;5068941;28;20032;-85
2021/05/20 10:50:52;;;;;;;21.75;17.83;;;13.90;95.30;;;;;;5054746;28;20127;-85
2021/05/20 10:53:46;;;;;;;23.35;17.15;;;13.90;95.50;;;;;;5073050;28;20047;-85
2021/05/20 10:56:12;;;;;;;21.60;17.13;;;14.00;94.40;;;;;;5071766;28;20133;-85
2021/05/20 10:58:38;;;;;;;21.58;18.80;;;14.00;95.00;;;;;;5074566;28;20484;-84
2021/05/20 11:01:19;;;;;;;23.38;19.92;;;14.10;94.90;;;;;;5074038;28;20052;-86
2021/05/20 11:03:52;;;;;;;25.60;20.45;;;14.20;94.30;;;;;;5087890;28;20024;-84
2021/05/20 11:06:21;;;;;;;27.73;22.38;;;14.30;94.80;;;;;;5063821;28;20071;-83
2021/05/20 11:08:46;;;;;;;28.15;22.10;;;14.40;93.60;;;;;;5080083;28;20052;-85
2021/05/20 11:11:41;;;;;;;26.52;22.20;;;14.40;94.30;;;;;;5087751;28;20504;-86
2021/05/20 11:14:13;;;;;;;28.05;22.55;;;14.60;93.20;;;;;;5065068;28;20504;-84
2021/05/20 11:16:45;;;;;;;27.42;22.35;;;14.70;93.30;;;;;;5056603;28;20066;-85
2021/05/20 11:19:20;;;;;;;32.40;24.75;;;14.70;93.80;;;;;;5058344;28;20020;-85
2021/05/20 11:21:55;;;;;;;31.95;25.90;;;14.80;93.80;;;;;;5066982;28;20520;-85
2021/05/20 11:24:22;;;;;;;33.63;27.05;;;14.90;92.70;;;;;;5056628;28;20021;-84
2021/05/20 11:26:58;;;;;;;32.70;25.90;;;15.00;92.80;;;;;;5074036;28;20091;-85
2021/05/20 11:29:29;;;;;;;39.65;30.00;;;15.00;92.90;;;;;;5058459;28;20063;-84
2021/05/20 11:32:14;;;;;;;38.55;29.42;;;15.10;91.50;;;;;;5058617;28;20111;-84
2021/05/20 11:37:06;;;;;;;30.75;23.20;;;15.20;91.50;;;;;;5061646;28;20024;-85
2021/05/20 11:39:32;;;;;;;33.10;24.30;;;15.30;90.30;;;;;;5076139;28;20052;-85
2021/05/20 11:42:01;;;;;;;32.58;24.65;;;15.30;90.60;;;;;;5045303;28;20066;-85
2021/05/20 11:44:27;;;;;;;28.05;21.08;;;15.40;91.00;;;;;;5049681;28;20086;-85
2021/05/20 11:47:04;;;;;;;28.17;21.40;;;15.50;89.30;;;;;;5055617;28;20017;-86
2021/05/20 11:49:30;;;;;;;30.00;22.63;;;15.50;87.20;;;;;;5055704;28;20033;-86
2021/05/20 11:52:08;;;;;;;27.85;21.60;;;15.60;88.00;;;;;;5035610;28;20471;-85
2021/05/20 11:54:46;;;;;;;24.00;18.75;;;15.70;88.40;;;;;;5060109;28;20016;-84
2021/05/20 11:57:14;;;;;;;24.27;18.25;;;15.80;87.50;;;;;;5063084;28;20072;-85
2021/05/20 11:59:50;;;;;;;26.88;19.27;;;15.90;87.60;;;;;;5078044;28;20012;-86
2021/05/20 12:02:28;;;;;;;27.02;20.88;;;15.90;87.90;;;;;;5081556;28;20078;-86
2021/05/20 12:05:00;;;;;;;25.23;20.63;;;16.00;88.00;;;;;;5060862;23;20049;-84
2021/05/20 12:07:28;;;;;;;27.77;21.23;;;16.10;89.70;;;;;;5032178;28;20021;-84
2021/05/20 12:09:55;;;;;;;21.90;17.95;;;16.10;88.80;;;;;;5032610;28;20075;-84
2021/05/20 12:12:21;;;;;;;24.67;20.05;;;16.20;90.00;;;;;;5032463;28;20021;-84
2021/05/20 12:14:48;;;;;;;27.17;20.85;;;16.30;88.00;;;;;;5016289;28;20180;-84
2021/05/20 12:17:22;;;;;;;24.45;20.80;;;16.30;88.00;;;;;;5022705;28;20021;-84
2021/05/20 12:19:55;;;;;;;23.85;19.60;;;16.30;87.40;;;;;;5033700;28;20378;-84
2021/05/20 12:22:26;;;;;;;23.65;20.23;;;16.30;87.50;;;;;;5031478;28;20026;-83
2021/05/20 12:24:56;;;;;;;22.80;19.20;;;16.30;86.40;;;;;;5048607;28;20022;-83
2021/05/20 12:27:24;;;;;;;;;;;16.30;85.90;;;;;;5015764;28;20045;-83
2021/05/20 12:29:58;;;;;;;21.00;18.13;;;16.20;85.00;;;;;;5015492;28;19905;-85
2021/05/20 12:32:38;;;;;;;23.48;19.35;;;16.20;85.90;;;;;;5000554;28;20037;-83
2021/05/20 12:35:23;;;;;;;20.20;17.30;;;16.10;87.40;;;;;;5016036;28;20383;-85
2021/05/20 12:37:53;;;;;;;21.85;18.08;;;16.10;87.80;;;;;;5016278;28;20017;-85
2021/05/20 12:40:33;;;;;;;23.60;19.75;;;16.10;86.30;;;;;;5018541;28;20056;-85
2021/05/20 12:43:17;;;;;;;20.85;17.88;;;16.00;86.80;;;;;;5023513;28;20080;-85
2021/05/20 12:45:45;;;;;;;18.27;16.17;;;16.00;86.10;;;;;;5032909;28;20100;-86